TimeWET,TemperatureF,Dew PointF,Humidity,Sea Level PressureIn,VisibilityMPH,Wind Direction,Wind SpeedMPH,Gust SpeedMPH,PrecipitationIn,Events,Conditions,WindDirDegrees,DateUTC
12:00 AM,67,62,79,30.06,6,ENE,3.5,,,,,60,2012-10-01 00:00:00
12:00 AM,66.2,62.6,88,30.04,-9999.0,ENE,3.5,-,N/A,,Clear,60,2012-10-01 00:00:00
1:00 AM,64.4,60.8,88,30.04,-9999.0,ENE,4.6,-,N/A,,Clear,60,2012-10-01 01:00:00
2:00 AM,64.4,60.8,88,30.04,-9999.0,ENE,3.5,-,N/A,,Clear,60,2012-10-01 02:00:00
3:00 AM,64,61,85,30.01,,SE,3.5,,,,,130,2012-10-01 03:00:00
3:00 AM,64.4,60.8,88,30.01,6.2,SE,3.5,-,N/A,,Unknown,130,2012-10-01 03:00:00
4:00 AM,62.6,60.8,94,30.01,6.2,South,1.2,-,N/A,,Unknown,180,2012-10-01 04:00:00
5:00 AM,62.6,60.8,94,30.01,6.2,Calm,Calm,-,N/A,,Unknown,0,2012-10-01 05:00:00
6:00 AM,62,59,87,30.01,6,Calm,Calm,,,,,,2012-10-01 06:00:00
6:00 AM,60.8,59.0,94,30.01,-9999.0,Calm,Calm,-,N/A,,Clear,0,2012-10-01 06:00:00
7:00 AM,62.6,60.8,94,30.04,-9999.0,South,3.5,-,N/A,,Clear,180,2012-10-01 07:00:00
8:00 AM,66.2,64.4,94,30.04,-9999.0,Calm,Calm,-,N/A,,Clear,0,2012-10-01 08:00:00
9:00 AM,70,63,72,30.06,6,West,4.6,,,,,260,2012-10-01 09:00:00
9:00 AM,69.8,62.6,78,30.06,-9999.0,West,4.6,-,N/A,,Clear,260,2012-10-01 09:00:00
10:00 AM,73.4,62.6,69,30.06,6.2,SW,4.6,-,N/A,,Partly Cloudy,220,2012-10-01 10:00:00
11:00 AM,75.2,62.6,65,30.06,6.2,SW,4.6,-,N/A,,Partly Cloudy,220,2012-10-01 11:00:00
12:00 PM,77,62,51,30.05,6,SW,6.9,,,,Scattered Clouds,230,2012-10-01 12:00:00
12:00 PM,77.0,62.6,61,30.06,6.2,SW,6.9,-,N/A,,Partly Cloudy,230,2012-10-01 12:00:00
1:00 PM,78.8,62.6,57,30.04,6.2,West,9.2,-,N/A,,Partly Cloudy,270,2012-10-01 13:00:00
2:00 PM,78.8,62.6,57,30.01,6.2,West,10.4,-,N/A,,Partly Cloudy,270,2012-10-01 14:00:00
3:00 PM,78,62,48,30.01,6,West,12.7,,,,Scattered Clouds,270,2012-10-01 15:00:00
3:00 PM,78.8,62.6,57,30.01,6.2,West,12.7,-,N/A,,Partly Cloudy,270,2012-10-01 15:00:00
4:00 PM,77.0,60.8,57,30.01,6.2,West,13.8,-,N/A,,Partly Cloudy,260,2012-10-01 16:00:00
5:00 PM,75.2,60.8,61,30.01,6.2,WSW,11.5,-,N/A,,Partly Cloudy,250,2012-10-01 17:00:00
6:00 PM,72,62,63,30.02,6,WSW,6.9,,,,Scattered Clouds,240,2012-10-01 18:00:00
6:00 PM,71.6,62.6,73,30.01,6.2,WSW,6.9,-,N/A,,Partly Cloudy,240,2012-10-01 18:00:00
7:00 PM,69.8,62.6,78,30.04,6.2,WSW,4.6,-,N/A,,Partly Cloudy,250,2012-10-01 19:00:00
8:00 PM,69.8,62.6,78,30.04,-9999.0,Calm,Calm,-,N/A,,Clear,0,2012-10-01 20:00:00
9:00 PM,68,62,77,30.07,6,Calm,Calm,,,,,,2012-10-01 21:00:00
9:00 PM,68.0,62.6,83,30.06,-9999.0,Calm,Calm,-,N/A,,Clear,0,2012-10-01 21:00:00
10:00 PM,68.0,64.4,88,30.06,-9999.0,East,3.5,-,N/A,,Clear,80,2012-10-01 22:00:00
11:00 PM,66.2,62.6,88,30.06,-9999.0,East,4.6,-,N/A,,Clear,90,2012-10-01 23:00:00